createdAt,value
2019-04-23T00:00:24.609Z,1010.66
2019-04-23T00:01:31.955Z,1010.66
2019-04-23T00:02:20.472Z,1010.72
2019-04-23T00:03:18.808Z,1010.77
2019-04-23T00:04:20.163Z,1010.73
2019-04-23T00:05:30.700Z,1010.71
2019-04-23T00:06:28.804Z,1010.71
2019-04-23T00:07:26.481Z,1010.68
2019-04-23T00:08:27.126Z,1010.61
2019-04-23T00:09:27.728Z,1010.62
2019-04-23T00:10:26.278Z,1010.63
2019-04-23T00:11:19.378Z,1010.58
2019-04-23T00:12:30.033Z,1010.63
2019-04-23T00:13:21.128Z,1010.57
2019-04-23T00:14:34.483Z,1010.58
2019-04-23T00:16:21.832Z,1010.55
2019-04-23T00:17:26.796Z,1010.52
2019-04-23T00:18:26.607Z,1010.56
2019-04-23T00:19:22.887Z,1010.54
2019-04-23T00:20:20.100Z,1010.57
2019-04-23T00:21:20.186Z,1010.53
2019-04-23T00:22:20.306Z,1010.54
2019-04-23T00:23:19.974Z,1010.54
2019-04-23T00:24:36.563Z,1010.55
2019-04-23T00:26:25.755Z,1010.52
2019-04-23T00:27:35.531Z,1010.52
2019-04-23T00:28:21.621Z,1010.49
2019-04-23T00:29:22.637Z,1010.48
2019-04-23T00:30:18.729Z,1010.49
2019-04-23T00:32:26.796Z,1010.42
2019-04-23T00:34:16.374Z,1010.42
2019-04-23T00:35:23.581Z,1010.44
2019-04-23T00:36:25.956Z,1010.42
2019-04-23T00:37:25.464Z,1010.41
2019-04-23T00:39:18.825Z,1010.39
2019-04-23T00:40:19.017Z,1010.36
2019-04-23T00:41:16.209Z,1010.35
2019-04-23T00:42:25.792Z,1010.38
2019-04-23T00:43:23.884Z,1010.35
2019-04-23T00:44:22.836Z,1010.37
2019-04-23T00:45:16.632Z,1010.33
2019-04-23T00:46:45.261Z,1010.35
2019-04-23T00:47:25.565Z,1010.33
2019-04-23T00:48:27.999Z,1010.34
2019-04-23T00:49:21.131Z,1010.33
2019-04-23T00:50:19.348Z,1010.33
2019-04-23T00:51:19.032Z,1010.33
2019-04-23T00:52:26.649Z,1010.31
2019-04-23T00:54:22.682Z,1010.27
2019-04-23T00:55:39.770Z,1010.24
2019-04-23T00:57:24.274Z,1010.23
2019-04-23T00:58:41.717Z,1010.22
2019-04-23T00:59:21.735Z,1010.26
2019-04-23T01:00:28.161Z,1010.20
2019-04-23T01:01:19.916Z,1010.22
2019-04-23T01:02:29.692Z,1010.25
2019-04-23T01:03:20.583Z,1010.21
2019-04-23T01:04:20.535Z,1010.25
2019-04-23T01:06:19.776Z,1010.21
2019-04-23T01:07:21.557Z,1010.17
2019-04-23T01:08:21.756Z,1010.17
2019-04-23T01:09:25.649Z,1010.17
2019-04-23T01:10:20.864Z,1010.21
2019-04-23T01:11:20.411Z,1010.18
2019-04-23T01:12:25.653Z,1010.20
2019-04-23T01:13:22.372Z,1010.17
2019-04-23T01:14:21.520Z,1010.14
2019-04-23T01:15:28.837Z,1010.18
2019-04-23T01:16:16.432Z,1010.15
2019-04-23T01:17:26.137Z,1010.16
2019-04-23T01:18:30.211Z,1010.12
2019-04-23T01:19:24.456Z,1010.12
2019-04-23T01:20:20.976Z,1010.10
2019-04-23T01:20:57.907Z,1010.09
2019-04-23T01:21:57.964Z,1010.09
2019-04-23T01:22:57.150Z,1010.09
2019-04-23T01:24:02.732Z,1010.11
2019-04-23T01:25:08.755Z,1010.09
2019-04-23T01:26:16.539Z,1010.06
2019-04-23T01:28:23.197Z,1010.06
2019-04-23T01:29:19.923Z,1010.02
2019-04-23T01:30:19.814Z,1010.07
2019-04-23T01:31:20.136Z,1010.04
2019-04-23T01:32:27.149Z,1010.00
2019-04-23T01:33:29.617Z,1010.02
2019-04-23T01:34:24.449Z,1009.99
2019-04-23T01:35:36.426Z,1010.02
2019-04-23T01:37:26.905Z,1010.05
2019-04-23T01:38:29.326Z,1009.98
2019-04-23T01:39:23.297Z,1009.95
2019-04-23T01:40:27.369Z,1009.96
2019-04-23T01:41:30.355Z,1009.93
2019-04-23T01:42:29.058Z,1009.96
2019-04-23T01:43:27.882Z,1009.99
2019-04-23T01:44:34.179Z,1009.91
2019-04-23T01:45:24.189Z,1009.84
2019-04-23T01:46:21.781Z,1009.88
2019-04-23T01:47:24.440Z,1009.91
2019-04-23T01:48:17.889Z,1009.84
2019-04-23T01:49:31.442Z,1009.85
2019-04-23T01:51:31.124Z,1009.77
2019-04-23T01:52:24.930Z,1009.80
2019-04-23T01:53:30.097Z,1009.75
2019-04-23T01:54:26.805Z,1009.74
2019-04-23T01:56:25.956Z,1009.73
2019-04-23T01:57:23.223Z,1009.73
2019-04-23T01:59:24.779Z,1009.75
2019-04-23T02:01:27.769Z,1009.70
2019-04-23T02:02:27.121Z,1009.67
2019-04-23T02:03:20.800Z,1009.67
2019-04-23T02:04:24.439Z,1009.68
2019-04-23T02:06:27.972Z,1009.70
2019-04-23T02:07:29.590Z,1009.61
2019-04-23T02:08:20.694Z,1009.65
2019-04-23T02:09:26.058Z,1009.61
2019-04-23T02:10:38.012Z,1009.64
2019-04-23T02:11:19.621Z,1009.59
2019-04-23T02:12:28.925Z,1009.65
2019-04-23T02:13:28.588Z,1009.58
2019-04-23T02:14:41.602Z,1009.62
2019-04-23T02:15:23.459Z,1009.55
2019-04-23T02:16:24.714Z,1009.61
2019-04-23T02:17:24.941Z,1009.56
2019-04-23T02:18:20.565Z,1009.58
2019-04-23T02:19:26.710Z,1009.62
2019-04-23T02:21:24.008Z,1009.60
2019-04-23T02:22:34.411Z,1009.57
2019-04-23T02:23:26.240Z,1009.61
2019-04-23T02:24:24.427Z,1009.59
2019-04-23T02:25:34.893Z,1009.62
2019-04-23T02:27:31.191Z,1009.58
2019-04-23T02:28:25.544Z,1009.58
2019-04-23T02:29:36.652Z,1009.56
2019-04-23T02:31:44.866Z,1009.52
2019-04-23T02:32:31.840Z,1009.54
2019-04-23T02:33:34.460Z,1009.54
2019-04-23T02:34:52.668Z,1009.53
2019-04-23T02:35:47.120Z,1009.49
2019-04-23T02:36:22.639Z,1009.55
2019-04-23T02:37:45.938Z,1009.52
2019-04-23T02:39:30.655Z,1009.49
2019-04-23T02:40:37.833Z,1009.52
2019-04-23T02:41:35.137Z,1009.47
2019-04-23T02:44:24.043Z,1009.51
2019-04-23T02:45:45.486Z,1009.49
2019-04-23T02:46:17.578Z,1009.45
2019-04-23T02:47:34.337Z,1009.49
2019-04-23T02:49:38.212Z,1009.48
2019-04-23T02:51:35.141Z,1009.45
2019-04-23T02:52:31.761Z,1009.51
2019-04-23T02:53:42.381Z,1009.49
2019-04-23T02:54:44.233Z,1009.49
2019-04-23T02:55:38.973Z,1009.46
2019-04-23T02:57:33.404Z,1009.50
2019-04-23T02:59:59.969Z,1009.43
2019-04-23T03:01:00.287Z,1009.47
2019-04-23T03:04:34.137Z,1009.40
2019-04-23T03:05:24.941Z,1009.32
2019-04-23T03:06:29.527Z,1009.34
2019-04-23T03:10:34.275Z,1009.32
2019-04-23T03:11:32.591Z,1009.32
2019-04-23T03:12:31.755Z,1009.38
2019-04-23T03:13:35.010Z,1009.32
2019-04-23T03:15:40.015Z,1009.33
2019-04-23T03:17:24.325Z,1009.27
2019-04-23T03:18:41.755Z,1009.29
2019-04-23T03:20:41.102Z,1009.27
2019-04-23T03:21:33.818Z,1009.31
2019-04-23T03:22:30.159Z,1009.32
2019-04-23T03:23:34.389Z,1009.22
2019-04-23T03:25:36.294Z,1009.23
2019-04-23T03:26:36.839Z,1009.24
2019-04-23T03:27:28.742Z,1009.23
2019-04-23T03:28:38.164Z,1009.22
2019-04-23T03:29:33.094Z,1009.14
2019-04-23T03:30:49.429Z,1009.19
2019-04-23T03:33:03.539Z,1009.17
2019-04-23T03:35:09.132Z,1009.21
2019-04-23T03:36:32.445Z,1009.22
2019-04-23T03:37:09.016Z,1009.24
2019-04-23T03:37:34.041Z,1009.16
2019-04-23T03:38:41.792Z,1009.20
2019-04-23T03:39:46.206Z,1009.17
2019-04-23T03:40:21.468Z,1009.16
2019-04-23T03:41:32.392Z,1009.13
2019-04-23T03:44:35.878Z,1009.18
2019-04-23T03:45:44.396Z,1009.16
2019-04-23T03:46:34.528Z,1009.16
2019-04-23T03:47:38.561Z,1009.21
2019-04-23T03:48:33.983Z,1009.15
2019-04-23T03:49:32.979Z,1009.18
2019-04-23T03:53:34.364Z,1009.21
2019-04-23T03:55:37.388Z,1009.19
2019-04-23T03:56:48.653Z,1009.19
2019-04-23T03:57:30.800Z,1009.17
2019-04-23T03:58:38.280Z,1009.13
2019-04-23T03:59:37.526Z,1009.19
2019-04-23T04:00:37.347Z,1009.16
2019-04-23T04:01:31.548Z,1009.12
2019-04-23T04:04:01.697Z,1009.10
2019-04-23T04:05:49.706Z,1009.14
2019-04-23T04:06:37.678Z,1009.15
2019-04-23T04:09:36.949Z,1009.08
2019-04-23T04:10:35.685Z,1009.13
2019-04-23T04:11:23.066Z,1009.07
2019-04-23T04:12:29.336Z,1009.07
2019-04-23T04:13:31.085Z,1009.12
2019-04-23T04:16:26.485Z,1009.15
2019-04-23T04:18:45.278Z,1009.14
2019-04-23T04:20:35.787Z,1009.14
2019-04-23T04:22:43.991Z,1009.07
2019-04-23T04:24:41.784Z,1009.05
2019-04-23T04:26:37.814Z,1008.92
2019-04-23T04:27:36.522Z,1008.99
2019-04-23T04:28:51.024Z,1009.00
2019-04-23T04:29:44.995Z,1009.02
2019-04-23T04:30:47.547Z,1008.96
2019-04-23T04:32:50.985Z,1008.97
2019-04-23T04:33:36.875Z,1008.98
2019-04-23T04:35:00.332Z,1008.98
2019-04-23T04:35:24.780Z,1008.98
2019-04-23T04:36:28.154Z,1008.96
2019-04-23T04:37:42.265Z,1008.98
2019-04-23T04:40:45.652Z,1008.96
2019-04-23T04:42:41.683Z,1008.99
2019-04-23T04:48:32.222Z,1009.00
2019-04-23T04:49:34.216Z,1008.90
2019-04-23T04:50:24.264Z,1008.89
2019-04-23T04:53:46.903Z,1008.91
2019-04-23T04:55:29.381Z,1008.92
2019-04-23T04:56:30.327Z,1008.90
2019-04-23T04:58:30.847Z,1008.86
2019-04-23T04:59:22.640Z,1008.85
2019-04-23T05:00:45.788Z,1008.87
2019-04-23T05:01:22.393Z,1008.85
2019-04-23T05:04:54.254Z,1008.85
2019-04-23T05:05:53.024Z,1008.81
2019-04-23T05:07:35.984Z,1008.83
2019-04-23T05:08:28.153Z,1008.79
2019-04-23T05:09:31.849Z,1008.86
2019-04-23T05:10:36.297Z,1008.86
2019-04-23T05:15:23.390Z,1008.76
2019-04-23T05:16:29.434Z,1008.80
2019-04-23T05:17:32.374Z,1008.75
2019-04-23T05:19:36.884Z,1008.84
2019-04-23T05:20:32.940Z,1008.79
2019-04-23T05:21:26.551Z,1008.76
2019-04-23T05:22:22.654Z,1008.70
2019-04-23T05:25:17.212Z,1008.71
2019-04-23T05:26:26.502Z,1008.72
2019-04-23T05:27:19.302Z,1008.74
2019-04-23T05:28:40.917Z,1008.70
2019-04-23T05:29:14.938Z,1008.75
2019-04-23T05:30:23.005Z,1008.77
2019-04-23T05:32:19.404Z,1008.73
2019-04-23T05:33:22.430Z,1008.68
2019-04-23T05:34:23.862Z,1008.65
2019-04-23T05:35:33.332Z,1008.66
2019-04-23T05:36:30.784Z,1008.67
2019-04-23T05:37:23.014Z,1008.62
2019-04-23T05:40:32.114Z,1008.60
2019-04-23T05:41:38.498Z,1008.57
2019-04-23T05:42:20.060Z,1008.56
2019-04-23T05:43:19.159Z,1008.55
2019-04-23T05:45:28.593Z,1008.54
2019-04-23T05:46:26.445Z,1008.56
2019-04-23T05:47:39.427Z,1008.47
2019-04-23T05:50:30.495Z,1008.52
2019-04-23T05:51:28.336Z,1008.55
2019-04-23T05:52:27.803Z,1008.55
2019-04-23T05:53:18.418Z,1008.57
2019-04-23T05:55:21.820Z,1008.54
2019-04-23T05:56:22.606Z,1008.59
2019-04-23T05:57:21.592Z,1008.45
2019-04-23T05:58:22.179Z,1008.49
2019-04-23T05:59:26.168Z,1008.51
2019-04-23T06:00:26.233Z,1008.47
2019-04-23T06:01:47.713Z,1008.47
2019-04-23T06:02:17.067Z,1008.46
2019-04-23T06:03:26.136Z,1008.36
2019-04-23T06:05:29.935Z,1008.34
2019-04-23T06:06:33.123Z,1008.42
2019-04-23T06:07:28.883Z,1008.38
2019-04-23T06:08:25.569Z,1008.43
2019-04-23T06:09:19.286Z,1008.36
2019-04-23T06:10:18.143Z,1008.35
2019-04-23T06:11:30.763Z,1008.28
2019-04-23T06:12:19.010Z,1008.39
2019-04-23T06:13:22.495Z,1008.29
2019-04-23T06:15:20.190Z,1008.33
2019-04-23T06:16:22.166Z,1008.33
2019-04-23T06:17:21.541Z,1008.36
2019-04-23T06:18:25.414Z,1008.30
2019-04-23T06:19:21.503Z,1008.27
2019-04-23T06:20:28.805Z,1008.32
2019-04-23T06:21:26.141Z,1008.32
2019-04-23T06:22:33.161Z,1008.16
2019-04-23T06:23:30.253Z,1008.36
2019-04-23T06:24:35.054Z,1008.28
2019-04-23T06:26:33.097Z,1008.23
2019-04-23T06:27:27.783Z,1008.23
2019-04-23T06:28:21.204Z,1008.21
2019-04-23T06:29:25.515Z,1008.25
2019-04-23T06:30:25.730Z,1008.19
2019-04-23T06:31:24.516Z,1008.31
2019-04-23T06:32:19.601Z,1008.26
2019-04-23T06:33:25.648Z,1008.27
2019-04-23T06:34:24.798Z,1008.27
2019-04-23T06:35:27.142Z,1008.24
2019-04-23T06:36:25.998Z,1008.30
2019-04-23T06:37:27.001Z,1008.25
2019-04-23T06:39:21.410Z,1008.28
2019-04-23T06:40:25.212Z,1008.21
2019-04-23T06:41:21.390Z,1008.22
2019-04-23T06:42:17.727Z,1008.24
2019-04-23T06:43:47.073Z,1008.32
2019-04-23T06:45:19.382Z,1008.25
2019-04-23T06:46:19.759Z,1008.29
2019-04-23T06:47:21.956Z,1008.25
2019-04-23T06:48:21.795Z,1008.30
2019-04-23T06:49:26.461Z,1008.31
2019-04-23T06:50:14.905Z,1008.31
2019-04-23T06:51:25.877Z,1008.27
2019-04-23T06:52:21.279Z,1008.26
2019-04-23T06:53:12.505Z,1008.20
2019-04-23T06:54:24.440Z,1008.29
2019-04-23T06:55:25.506Z,1008.23
2019-04-23T06:56:30.515Z,1008.24
2019-04-23T06:58:28.990Z,1008.18
2019-04-23T06:59:33.602Z,1008.21
2019-04-23T07:00:24.102Z,1008.17
2019-04-23T07:01:22.145Z,1008.13
2019-04-23T07:02:20.090Z,1008.13
2019-04-23T07:03:22.072Z,1008.09
2019-04-23T07:04:25.958Z,1008.14
2019-04-23T07:05:27.270Z,1008.06
2019-04-23T07:06:23.564Z,1008.03
2019-04-23T07:08:30.633Z,1008.03
2019-04-23T07:09:29.243Z,1007.98
2019-04-23T07:10:18.420Z,1007.97
2019-04-23T07:12:25.732Z,1007.95
2019-04-23T07:13:21.475Z,1008.01
2019-04-23T07:14:12.668Z,1008.02
2019-04-23T07:15:33.552Z,1008.01
2019-04-23T07:16:32.895Z,1007.96
2019-04-23T07:17:13.847Z,1007.97
2019-04-23T07:18:18.008Z,1007.98
2019-04-23T07:19:27.275Z,1007.95
2019-04-23T07:20:21.634Z,1007.93
2019-04-23T07:23:35.367Z,1007.96
2019-04-23T07:24:15.291Z,1007.88
2019-04-23T07:25:20.371Z,1007.96
2019-04-23T07:26:30.334Z,1007.90
2019-04-23T07:27:19.145Z,1007.93
2019-04-23T07:28:29.017Z,1007.89
2019-04-23T07:29:18.914Z,1007.87
2019-04-23T07:30:23.729Z,1007.91
2019-04-23T07:31:26.605Z,1007.89
2019-04-23T07:32:15.165Z,1007.87
2019-04-23T07:33:20.114Z,1007.87
2019-04-23T07:34:18.750Z,1007.81
2019-04-23T07:35:16.069Z,1007.84
2019-04-23T07:36:23.965Z,1007.85
2019-04-23T07:37:20.685Z,1007.83
2019-04-23T07:38:32.661Z,1007.89
2019-04-23T07:39:23.491Z,1007.80
2019-04-23T07:41:23.671Z,1007.81
2019-04-23T07:42:39.118Z,1007.78
2019-04-23T07:43:23.391Z,1007.72
2019-04-23T07:44:28.289Z,1007.83
2019-04-23T07:45:22.317Z,1007.81
2019-04-23T07:46:25.009Z,1007.79
2019-04-23T07:47:20.397Z,1007.82
2019-04-23T07:49:23.675Z,1007.81
2019-04-23T07:50:33.306Z,1007.80
2019-04-23T07:51:22.793Z,1007.74
2019-04-23T07:52:29.759Z,1007.72
2019-04-23T07:54:22.848Z,1007.66
2019-04-23T07:55:30.112Z,1007.68
2019-04-23T07:56:21.383Z,1007.81
2019-04-23T07:57:20.167Z,1007.65
2019-04-23T07:58:33.552Z,1007.65
2019-04-23T07:59:31.183Z,1007.65
2019-04-23T08:00:27.659Z,1007.65
2019-04-23T08:01:34.528Z,1007.63
2019-04-23T08:04:29.691Z,1007.58
2019-04-23T08:05:24.047Z,1007.55
2019-04-23T08:06:17.948Z,1007.58
2019-04-23T08:07:20.868Z,1007.51
2019-04-23T08:08:16.848Z,1007.52
2019-04-23T08:09:28.090Z,1007.59
2019-04-23T08:10:21.383Z,1007.47
2019-04-23T08:11:34.270Z,1007.42
2019-04-23T08:12:28.918Z,1007.48
2019-04-23T08:13:27.932Z,1007.55
2019-04-23T08:14:15.418Z,1007.48
2019-04-23T08:15:23.075Z,1007.57
2019-04-23T08:16:32.932Z,1007.48
2019-04-23T08:17:26.163Z,1007.43
2019-04-23T08:18:17.790Z,1007.41
2019-04-23T08:19:25.499Z,1007.39
2019-04-23T08:20:25.827Z,1007.46
2019-04-23T08:21:21.238Z,1007.43
2019-04-23T08:23:13.735Z,1007.37
2019-04-23T08:24:18.263Z,1007.37
2019-04-23T08:25:17.848Z,1007.35
2019-04-23T08:26:28.970Z,1007.37
2019-04-23T08:27:18.170Z,1007.32
2019-04-23T08:28:34.090Z,1007.33
2019-04-23T08:29:27.616Z,1007.29
2019-04-23T08:30:17.460Z,1007.26
2019-04-23T08:31:24.628Z,1007.32
2019-04-23T08:32:19.611Z,1007.33
2019-04-23T08:33:19.476Z,1007.21
2019-04-23T08:35:23.328Z,1007.17
2019-04-23T08:36:23.885Z,1007.18
2019-04-23T08:37:32.369Z,1007.18
2019-04-23T08:38:27.960Z,1007.15
2019-04-23T08:39:19.398Z,1007.16
2019-04-23T08:40:26.372Z,1007.20
2019-04-23T08:41:28.161Z,1007.19
2019-04-23T08:43:29.345Z,1007.09
2019-04-23T08:46:26.710Z,1007.14
2019-04-23T08:47:37.821Z,1007.10
2019-04-23T08:48:37.013Z,1007.12
2019-04-23T08:49:36.227Z,1007.03
2019-04-23T08:50:26.336Z,1007.02
2019-04-23T08:51:32.309Z,1007.07
2019-04-23T08:52:18.727Z,1007.11
2019-04-23T08:53:29.651Z,1007.09
2019-04-23T08:54:26.813Z,1007.13
2019-04-23T08:55:21.054Z,1007.09
2019-04-23T08:56:20.665Z,1007.02
2019-04-23T08:57:22.683Z,1007.03
2019-04-23T08:58:28.854Z,1006.98
2019-04-23T08:59:24.959Z,1006.99
2019-04-23T09:00:23.632Z,1006.95
2019-04-23T09:01:17.141Z,1006.90
2019-04-23T09:02:30.888Z,1006.89
2019-04-23T09:04:23.672Z,1006.90
2019-04-23T09:05:28.676Z,1006.94
2019-04-23T09:06:16.812Z,1006.85
2019-04-23T09:07:24.165Z,1006.84
2019-04-23T09:08:19.108Z,1006.87
2019-04-23T09:09:21.918Z,1006.83
2019-04-23T09:10:19.739Z,1006.87
2019-04-23T09:12:28.612Z,1006.77
2019-04-23T09:14:08.929Z,1006.88
2019-04-23T09:15:26.334Z,1006.84
2019-04-23T09:16:22.301Z,1006.83
2019-04-23T09:18:21.394Z,1006.78
2019-04-23T09:19:23.958Z,1006.82
2019-04-23T09:20:21.935Z,1006.79
2019-04-23T09:21:25.678Z,1006.77
2019-04-23T09:22:34.441Z,1006.71
2019-04-23T09:23:21.086Z,1006.78
2019-04-23T09:24:22.839Z,1006.68
2019-04-23T09:25:28.348Z,1006.70
2019-04-23T09:26:16.104Z,1006.75
2019-04-23T09:27:27.415Z,1006.70
2019-04-23T09:28:26.099Z,1006.62
2019-04-23T09:29:28.015Z,1006.72
2019-04-23T09:30:23.368Z,1006.65
2019-04-23T09:31:31.667Z,1006.67
2019-04-23T09:32:33.773Z,1006.58
2019-04-23T09:33:26.323Z,1006.65
2019-04-23T09:34:18.890Z,1006.65
2019-04-23T09:35:20.737Z,1006.62
2019-04-23T09:36:22.465Z,1006.63
2019-04-23T09:38:16.541Z,1006.55
2019-04-23T09:39:20.584Z,1006.51
2019-04-23T09:41:02.911Z,1006.36
2019-04-23T09:42:28.215Z,1006.41
2019-04-23T09:43:24.204Z,1006.44
2019-04-23T09:44:41.458Z,1006.39
2019-04-23T09:45:28.052Z,1006.41
2019-04-23T09:47:23.768Z,1006.34
2019-04-23T09:48:35.335Z,1006.34
2019-04-23T09:49:20.512Z,1006.35
2019-04-23T09:50:23.543Z,1006.36
2019-04-23T09:51:27.811Z,1006.32
2019-04-23T09:52:21.808Z,1006.32
2019-04-23T09:56:22.098Z,1006.14
2019-04-23T09:57:15.972Z,1006.18
2019-04-23T09:59:25.329Z,1006.14
2019-04-23T10:00:25.468Z,1006.09
2019-04-23T10:01:23.535Z,1006.10
2019-04-23T10:02:10.403Z,1006.06
2019-04-23T10:03:03.549Z,1006.09
2019-04-23T10:04:03.979Z,1006.05
2019-04-23T10:05:07.360Z,1006.08
2019-04-23T10:06:02.978Z,1006.23
2019-04-23T10:07:05.402Z,1006.22
2019-04-23T10:08:02.973Z,1006.35
2019-04-23T10:08:57.672Z,1006.29
2019-04-23T10:09:53.432Z,1006.24
2019-04-23T10:10:51.378Z,1006.29
2019-04-23T10:11:51.192Z,1006.19
2019-04-23T10:12:50.990Z,1006.12
2019-04-23T10:13:52.615Z,1006.17
2019-04-23T10:14:58.990Z,1006.13
2019-04-23T10:15:53.574Z,1006.09
2019-04-23T10:16:51.702Z,1006.22
2019-04-23T10:17:52.079Z,1006.24
2019-04-23T10:18:51.084Z,1006.10
2019-04-23T10:19:50.956Z,1006.15
2019-04-23T10:20:52.234Z,1006.19
2019-04-23T10:21:51.343Z,1006.11
2019-04-23T10:22:52.481Z,1006.17
2019-04-23T10:23:51.711Z,1006.11
2019-04-23T10:24:50.961Z,1006.10
2019-04-23T10:25:52.264Z,1006.09
2019-04-23T10:26:52.175Z,1005.96
2019-04-23T10:27:55.069Z,1006.10
2019-04-23T10:28:52.027Z,1006.03
2019-04-23T10:29:51.865Z,1006.03
2019-04-23T10:30:50.941Z,1006.04
2019-04-23T10:31:51.433Z,1006.04
2019-04-23T10:32:51.689Z,1005.98
2019-04-23T10:33:52.274Z,1006.00
2019-04-23T10:35:03.501Z,1005.97
2019-04-23T10:35:59.976Z,1005.99
2019-04-23T10:36:53.481Z,1005.98
2019-04-23T10:37:56.577Z,1005.95
2019-04-23T10:39:00.467Z,1006.06
2019-04-23T10:39:56.647Z,1005.98
2019-04-23T10:40:52.271Z,1005.92
2019-04-23T10:41:52.664Z,1005.95
2019-04-23T10:42:52.245Z,1005.92
2019-04-23T10:43:54.089Z,1005.73
2019-04-23T10:44:52.539Z,1005.79
2019-04-23T10:46:11.800Z,1005.88
2019-04-23T10:47:16.488Z,1005.86
2019-04-23T10:48:31.731Z,1005.79
2019-04-23T10:50:31.810Z,1005.75
2019-04-23T10:51:25.876Z,1005.77
2019-04-23T10:52:21.409Z,1005.81
2019-04-23T10:54:30.152Z,1005.78
2019-04-23T10:55:27.149Z,1005.76
2019-04-23T10:56:31.070Z,1005.78
2019-04-23T10:57:17.018Z,1005.81
2019-04-23T10:58:24.905Z,1005.71
2019-04-23T10:59:21.281Z,1005.83
2019-04-23T11:00:16.182Z,1005.76
2019-04-23T11:01:24.487Z,1005.81
2019-04-23T11:03:41.691Z,1005.85
2019-04-23T11:04:38.287Z,1005.77
2019-04-23T11:05:29.096Z,1005.73
2019-04-23T11:06:25.286Z,1005.69
2019-04-23T11:08:18.765Z,1005.74
2019-04-23T11:09:38.614Z,1005.74
2019-04-23T11:10:17.452Z,1005.85
2019-04-23T11:11:25.594Z,1005.82
2019-04-23T11:12:33.015Z,1005.72
2019-04-23T11:13:25.869Z,1005.81
2019-04-23T11:14:24.834Z,1005.66
2019-04-23T11:15:32.297Z,1005.72
2019-04-23T11:17:26.444Z,1005.66
2019-04-23T11:18:25.202Z,1005.27
2019-04-23T11:19:25.806Z,1005.23
2019-04-23T11:20:34.088Z,1005.56
2019-04-23T11:21:34.253Z,1005.39
2019-04-23T11:22:38.945Z,1005.82
2019-04-23T11:23:12.293Z,1005.70
2019-04-23T11:24:34.430Z,1005.74
2019-04-23T11:26:24.454Z,1005.63
2019-04-23T11:27:22.587Z,1005.54
2019-04-23T11:28:33.216Z,1005.56
2019-04-23T11:29:29.079Z,1005.46
2019-04-23T11:31:25.055Z,1005.35
2019-04-23T11:32:42.849Z,1005.65
2019-04-23T11:34:45.998Z,1005.57
2019-04-23T11:37:37.871Z,1005.31
2019-04-23T11:38:01.637Z,1005.55
2019-04-23T11:38:48.780Z,1005.35
2019-04-23T11:39:28.755Z,1005.77
2019-04-23T11:40:21.206Z,1005.67
2019-04-23T11:41:27.619Z,1005.59
2019-04-23T11:42:23.412Z,1005.51
2019-04-23T11:43:20.965Z,1005.06
2019-04-23T11:44:26.914Z,1005.21
2019-04-23T11:45:41.799Z,1005.23
2019-04-23T11:46:43.185Z,1005.44
2019-04-23T11:47:47.053Z,1005.53
2019-04-23T11:49:34.597Z,1005.51
2019-04-23T11:50:38.020Z,1005.13
2019-04-23T11:52:34.450Z,1005.54
2019-04-23T11:55:32.667Z,1005.05
2019-04-23T11:56:35.339Z,1005.08
2019-04-23T11:57:29.803Z,1005.13
2019-04-23T11:58:37.590Z,1005.01
2019-04-23T11:59:31.887Z,1005.17
2019-04-23T12:00:28.409Z,1004.99
2019-04-23T12:02:22.035Z,1005.06
2019-04-23T12:03:14.264Z,1005.07
2019-04-23T12:05:29.723Z,1005.47
2019-04-23T12:07:22.691Z,1005.33
2019-04-23T12:08:26.324Z,1005.41
2019-04-23T12:09:31.426Z,1005.34
2019-04-23T12:10:29.069Z,1005.30
2019-04-23T12:11:50.320Z,1005.06
2019-04-23T12:12:23.805Z,1005.26
2019-04-23T12:13:33.519Z,1005.21
2019-04-23T12:14:31.029Z,1005.27
2019-04-23T12:15:26.775Z,1004.99
2019-04-23T12:16:32.089Z,1005.27
2019-04-23T12:17:24.685Z,1004.97
2019-04-23T12:18:30.552Z,1005.03
2019-04-23T12:19:44.330Z,1004.90
2019-04-23T12:21:22.508Z,1005.17
2019-04-23T12:23:31.944Z,1005.01
2019-04-23T12:24:36.639Z,1005.16
2019-04-23T12:26:34.228Z,1005.31
2019-04-23T12:27:25.945Z,1005.23
2019-04-23T12:28:21.372Z,1005.07
2019-04-23T12:29:29.263Z,1005.13
2019-04-23T12:30:25.344Z,1005.14
2019-04-23T12:31:26.670Z,1005.03
2019-04-23T12:32:37.534Z,1005.09
2019-04-23T12:33:30.205Z,1005.03
2019-04-23T12:34:28.402Z,1004.97
2019-04-23T12:35:19.302Z,1004.88
2019-04-23T12:36:28.369Z,1004.99
2019-04-23T12:37:26.690Z,1004.99
2019-04-23T12:39:21.485Z,1004.97
2019-04-23T12:40:19.996Z,1005.06
2019-04-23T12:41:21.146Z,1005.06
2019-04-23T12:42:45.344Z,1004.91
2019-04-23T12:44:25.441Z,1005.02
2019-04-23T12:46:27.643Z,1004.91
2019-04-23T12:47:38.443Z,1004.99
2019-04-23T12:48:35.032Z,1004.99
2019-04-23T12:49:50.458Z,1004.92
2019-04-23T12:50:42.231Z,1005.04
2019-04-23T12:51:26.699Z,1005.03
2019-04-23T12:52:34.331Z,1005.10
2019-04-23T12:53:25.867Z,1004.97
2019-04-23T12:54:32.339Z,1004.93
2019-04-23T12:55:23.427Z,1004.98
2019-04-23T12:56:31.789Z,1004.91
2019-04-23T12:57:29.759Z,1004.98
2019-04-23T12:58:21.952Z,1004.91
2019-04-23T12:59:14.715Z,1004.95
2019-04-23T13:00:20.588Z,1004.91
2019-04-23T13:01:25.775Z,1004.97
2019-04-23T13:02:26.800Z,1004.77
2019-04-23T13:04:20.404Z,1004.76
2019-04-23T13:05:16.648Z,1004.83
2019-04-23T13:06:17.158Z,1004.89
2019-04-23T13:07:26.390Z,1004.83
2019-04-23T13:09:40.477Z,1004.86
2019-04-23T13:10:22.213Z,1004.91
2019-04-23T13:11:24.849Z,1004.81
2019-04-23T13:12:33.213Z,1004.80
2019-04-23T13:13:24.296Z,1004.77
2019-04-23T13:14:30.680Z,1004.66
2019-04-23T13:15:20.368Z,1004.67
2019-04-23T13:16:25.492Z,1004.70
2019-04-23T13:18:19.537Z,1004.73
2019-04-23T13:19:37.366Z,1004.79
2019-04-23T13:21:38.420Z,1004.61
2019-04-23T13:22:26.503Z,1004.64
2019-04-23T13:24:15.661Z,1004.48
2019-04-23T13:25:19.989Z,1004.52
2019-04-23T13:26:17.825Z,1004.34
2019-04-23T13:27:26.127Z,1004.41
2019-04-23T13:29:30.480Z,1004.52
2019-04-23T13:30:23.179Z,1004.50
2019-04-23T13:32:24.265Z,1004.41
2019-04-23T13:33:30.041Z,1004.39
2019-04-23T13:34:22.581Z,1004.32
2019-04-23T13:35:40.705Z,1004.44
2019-04-23T13:37:20.211Z,1004.28
2019-04-23T13:39:20.231Z,1004.37
2019-04-23T13:40:24.187Z,1004.33
2019-04-23T13:42:33.073Z,1004.31
2019-04-23T13:43:29.520Z,1004.40
2019-04-23T13:44:19.607Z,1004.28
2019-04-23T13:45:36.099Z,1004.24
2019-04-23T13:47:28.317Z,1004.26
2019-04-23T13:49:18.448Z,1004.24
2019-04-23T13:50:35.474Z,1004.24
2019-04-23T13:51:22.571Z,1004.25
2019-04-23T13:52:46.438Z,1004.19
2019-04-23T13:54:42.050Z,1004.15
2019-04-23T13:55:26.688Z,1004.20
2019-04-23T13:56:24.482Z,1004.26
2019-04-23T13:57:48.834Z,1004.19
2019-04-23T13:58:22.586Z,1004.19
2019-04-23T13:59:26.578Z,1004.22
2019-04-23T14:00:24.751Z,1004.27
2019-04-23T14:01:25.438Z,1004.22
2019-04-23T14:02:34.470Z,1004.28
2019-04-23T14:03:19.812Z,1004.26
2019-04-23T14:04:38.929Z,1004.25
2019-04-23T14:05:22.125Z,1004.23
2019-04-23T14:06:22.883Z,1004.12
2019-04-23T14:07:24.557Z,1004.19
2019-04-23T14:08:23.219Z,1004.15
2019-04-23T14:10:33.741Z,1004.17
2019-04-23T14:11:24.808Z,1004.22
2019-04-23T14:12:22.344Z,1004.19
2019-04-23T14:14:25.201Z,1004.08
2019-04-23T14:15:26.602Z,1004.17
2019-04-23T14:17:26.853Z,1004.17
2019-04-23T14:18:43.411Z,1004.21
2019-04-23T14:19:13.019Z,1004.22
2019-04-23T14:22:46.262Z,1004.17
2019-04-23T14:23:27.748Z,1004.16
2019-04-23T14:26:23.238Z,1004.19
2019-04-23T14:27:20.001Z,1004.24
2019-04-23T14:28:25.468Z,1004.18
2019-04-23T14:29:21.097Z,1004.31
2019-04-23T14:30:25.510Z,1004.28
2019-04-23T14:31:28.018Z,1004.25
2019-04-23T14:34:37.763Z,1004.33
2019-04-23T14:35:32.169Z,1004.26
2019-04-23T14:36:19.109Z,1004.32
2019-04-23T14:37:17.945Z,1004.28
2019-04-23T14:39:18.522Z,1004.30
2019-04-23T14:41:24.866Z,1004.36
2019-04-23T14:42:33.873Z,1004.38
2019-04-23T14:43:25.812Z,1004.32
2019-04-23T14:44:13.029Z,1004.24
2019-04-23T14:45:29.657Z,1004.39
2019-04-23T14:47:23.977Z,1004.45